Time;durP1;ratioP1;P1;durP2;ratioP2;P2;SDS_P1;SDS_P2;PMS_P1;PMS_P2;Temp;Humidity;BMP_temperature;BMP_pressure;BME280_temperature;BME280_humidity;BME280_pressure;Samples;Min_cycle;Max_cycle;Signal;HPM_P1;HPM_P2
2022/10/05 00:01:48;;;;;;;0.60;0.60;;;15.30;99.90;;;;;;5081558;28;20040;-85
2022/10/05 00:04:15;;;;;;;;;;;15.50;99.90;;;;;;5070920;28;20054;-85
2022/10/05 00:06:47;;;;;;;;;;;15.50;99.90;;;;;;5067227;28;19917;-85
2022/10/05 00:09:17;;;;;;;0.60;0.55;;;15.50;99.90;;;;;;5093544;28;19920;-85
2022/10/05 00:11:43;;;;;;;1.38;0.80;;;15.40;99.90;;;;;;5097111;28;20093;-85
2022/10/05 00:14:28;;;;;;;0.47;0.47;;;15.40;99.90;;;;;;5087843;28;20043;-84
2022/10/05 00:16:55;;;;;;;0.30;0.30;;;15.30;99.90;;;;;;5066167;28;20066;-85
2022/10/05 00:19:26;;;;;;;0.65;0.65;;;15.40;99.90;;;;;;5066672;28;20436;-86
2022/10/05 00:21:51;;;;;;;0.52;0.52;;;15.40;99.90;;;;;;5072927;28;20044;-87
2022/10/05 00:24:19;;;;;;;0.77;0.77;;;15.30;99.90;;;;;;5042098;28;20098;-84
2022/10/05 00:26:45;;;;;;;0.32;0.32;;;15.20;99.90;;;;;;5078200;28;20059;-83
2022/10/05 00:29:21;;;;;;;1.35;0.95;;;14.90;99.90;;;;;;5073163;28;20402;-85
2022/10/05 00:31:48;;;;;;;;;;;15.40;99.90;;;;;;5094037;28;20538;-84
2022/10/05 00:34:14;;;;;;;0.30;0.30;;;15.40;99.90;;;;;;5093572;28;19916;-84
2022/10/05 00:36:41;;;;;;;0.90;0.80;;;15.50;99.90;;;;;;5080790;28;20048;-84
2022/10/05 00:39:07;;;;;;;0.30;0.30;;;15.40;99.90;;;;;;5082338;28;20044;-84
2022/10/05 00:41:43;;;;;;;0.55;0.50;;;;;;;;;;5071690;28;20040;-85
2022/10/05 00:44:18;;;;;;;0.40;0.40;;;;;;;;;;5088753;28;20051;-84
2022/10/05 00:46:45;;;;;;;0.52;0.52;;;;;;;;;;5083241;28;20365;-84
2022/10/05 00:49:24;;;;;;;0.40;0.40;;;;;;;;;;5091851;28;20342;-84
2022/10/05 00:52:02;;;;;;;0.35;0.35;;;;;;;;;;5090485;28;20513;-84
2022/10/05 00:54:47;;;;;;;0.50;0.50;;;;;;;;;;5074544;28;20036;-86
2022/10/05 00:57:16;;;;;;;0.40;0.40;;;;;;;;;;5065039;28;20119;-84
2022/10/05 00:59:59;;;;;;;0.30;0.30;;;;;;;;;;5084573;28;20374;-84
2022/10/05 01:02:30;;;;;;;0.30;0.30;;;;;;;;;;5069874;28;20036;-85
2022/10/05 01:05:10;;;;;;;0.30;0.30;;;;;;;;;;5073120;28;20040;-85
2022/10/05 01:07:52;;;;;;;0.40;0.40;;;;;;;;;;5070564;28;20119;-86
2022/10/05 01:10:25;;;;;;;0.20;0.20;;;;;;;;;;5089143;28;20466;-85
2022/10/05 01:13:15;;;;;;;0.80;0.70;;;;;;;;;;5095522;28;20489;-85
2022/10/05 01:16:02;;;;;;;0.60;0.60;;;;;;;;;;5090512;28;20031;-86
2022/10/05 01:18:37;;;;;;;0.40;0.40;;;;;;;;;;5077441;28;20044;-86
2022/10/05 01:21:10;;;;;;;0.82;0.82;;;;;;;;;;5073494;28;20044;-85
2022/10/05 01:23:36;;;;;;;2.17;1.05;;;;;;;;;;5071112;28;20040;-86
2022/10/05 01:26:11;;;;;;;0.52;0.52;;;;;;;;;;5080402;28;20036;-85
2022/10/05 01:28:46;;;;;;;0.88;0.88;;;;;;;;;;5068965;28;20081;-85
2022/10/05 01:31:34;;;;;;;0.40;0.40;;;;;;;;;;5089519;28;20043;-84
2022/10/05 01:34:16;;;;;;;0.45;0.45;;;;;;;;;;5091782;28;20442;-84
2022/10/05 01:36:51;;;;;;;0.50;0.50;;;;;;;;;;5081344;28;20165;-83
2022/10/05 01:39:26;;;;;;;0.50;0.50;;;;;;;;;;5089574;28;20497;-87
2022/10/05 01:42:06;;;;;;;0.43;0.43;;;;;;;;;;5087589;28;20051;-86
2022/10/05 01:44:55;;;;;;;0.65;0.50;;;;;;;;;;5090913;28;20492;-86
2022/10/05 01:47:44;;;;;;;0.30;0.30;;;;;;;;;;5089564;28;20059;-86
2022/10/05 01:50:10;;;;;;;0.40;0.40;;;;;;;;;;5090623;28;20048;-86
2022/10/05 01:52:36;;;;;;;0.30;0.30;;;;;;;;;;5091890;28;20048;-84
2022/10/05 01:55:02;;;;;;;;;;;;;;;;;;5090925;28;20064;-83
2022/10/05 01:57:28;;;;;;;0.30;0.30;;;;;;;;;;5094341;28;20366;-83
2022/10/05 01:59:54;;;;;;;1.13;1.13;;;;;;;;;;5088186;28;20054;-84
2022/10/05 02:02:21;;;;;;;0.68;0.68;;;;;;;;;;5074375;28;20185;-84
2022/10/05 02:04:47;;;;;;;0.60;0.60;;;;;;;;;;5073460;28;20131;-84
2022/10/05 02:07:24;;;;;;;0.32;0.32;;;;;;;;;;5069276;28;20128;-85
2022/10/05 02:10:01;;;;;;;0.40;0.30;;;;;;;;;;5092381;28;20093;-86
2022/10/05 02:12:29;;;;;;;0.80;0.80;;;;;;;;;;5065594;28;20035;-83
2022/10/05 02:14:57;;;;;;;0.43;0.43;;;;;;;;;;5086164;28;20039;-83
2022/10/05 02:17:27;;;;;;;0.50;0.50;;;;;;;;;;5079872;28;20040;-83
2022/10/05 02:20:05;;;;;;;0.40;0.40;;;;;;;;;;5086922;28;20354;-85
2022/10/05 02:22:47;;;;;;;0.30;0.30;;;;;;;;;;5073613;28;20040;-84
2022/10/05 02:25:15;;;;;;;3.83;0.65;;;;;;;;;;5085855;28;20032;-83
2022/10/05 02:27:47;;;;;;;0.93;0.52;;;;;;;;;;5092897;28;20101;-83
2022/10/05 02:30:13;;;;;;;0.30;0.30;;;;;;;;;;5091563;28;20043;-83
2022/10/05 02:32:41;;;;;;;0.30;0.30;;;;;;;;;;5091116;28;20178;-85
2022/10/05 02:35:15;;;;;;;0.95;0.90;;;;;;;;;;5082535;28;20142;-84
2022/10/05 02:37:53;;;;;;;0.28;0.28;;;;;;;;;;5085346;28;20040;-84
2022/10/05 02:40:25;;;;;;;0.52;0.52;;;;;;;;;;5090165;28;20055;-84
2022/10/05 02:42:51;;;;;;;0.40;0.40;;;;;;;;;;5078946;28;20036;-84
2022/10/05 02:45:17;;;;;;;;;;;;;;;;;;5063835;28;20057;-84
2022/10/05 02:47:43;;;;;;;0.40;0.40;;;;;;;;;;5082365;28;20040;-83
2022/10/05 02:50:26;;;;;;;0.93;0.93;;;;;;;;;;5091956;28;20047;-84
2022/10/05 02:52:55;;;;;;;0.32;0.32;;;;;;;;;;5085304;28;20044;-84
2022/10/05 02:55:28;;;;;;;0.35;0.35;;;;;;;;;;5088413;28;20047;-86
2022/10/05 02:58:02;;;;;;;0.57;0.57;;;;;;;;;;5086817;28;20051;-85
2022/10/05 03:00:31;;;;;;;0.30;0.30;;;;;;;;;;5080746;28;20107;-85
2022/10/05 03:03:01;;;;;;;0.30;0.30;;;;;;;;;;5093264;28;20307;-85
2022/10/05 03:05:30;;;;;;;0.40;0.40;;;;;;;;;;5071556;28;20374;-84
2022/10/05 03:08:14;;;;;;;0.32;0.32;;;;;;;;;;5083176;28;20048;-86
2022/10/05 03:10:46;;;;;;;0.63;0.63;;;;;;;;;;5072734;28;20105;-86
2022/10/05 03:13:31;;;;;;;0.30;0.30;;;;;;;;;;5108851;28;20131;-86
2022/10/05 03:16:10;;;;;;;0.40;0.40;;;;;;;;;;5092673;28;20032;-85
2022/10/05 03:18:53;;;;;;;0.63;0.52;;;;;;;;;;5066994;28;20489;-87
2022/10/05 03:21:22;;;;;;;0.30;0.30;;;;;;;;;;5083162;28;20067;-85
2022/10/05 03:23:58;;;;;;;0.88;0.63;;;;;;;;;;5080903;28;20040;-84
2022/10/05 03:26:39;;;;;;;0.63;0.63;;;;;;;;;;5084230;28;20454;-84
2022/10/05 03:29:17;;;;;;;0.75;0.75;;;;;;;;;;5096418;28;20525;-85
2022/10/05 03:32:02;;;;;;;0.40;0.40;;;;;;;;;;5072201;28;20492;-84
2022/10/05 03:34:49;;;;;;;0.60;0.60;;;15.10;99.90;;;;;;5092650;28;20044;-83
2022/10/05 03:37:34;;;;;;;0.52;0.52;;;15.30;99.90;;;;;;5094833;28;20074;-84
2022/10/05 03:40:21;;;;;;;0.98;0.88;;;15.20;99.90;;;;;;5082214;28;20093;-83
2022/10/05 03:43:10;;;;;;;0.30;0.30;;;15.20;99.90;;;;;;5088410;28;20059;-82
2022/10/05 03:45:47;;;;;;;0.40;0.40;;;15.20;99.90;;;;;;5091013;28;20408;-83
2022/10/05 03:48:38;;;;;;;0.40;0.40;;;15.10;99.90;;;;;;5073643;28;20087;-82
2022/10/05 03:51:21;;;;;;;2.00;1.17;;;15.10;99.90;;;;;;5066370;28;20040;-82
2022/10/05 03:53:55;;;;;;;0.52;0.52;;;15.10;99.90;;;;;;5083774;28;20042;-84
2022/10/05 03:56:48;;;;;;;0.50;0.50;;;15.10;99.90;;;;;;5085752;28;20062;-85
2022/10/05 03:59:19;;;;;;;0.30;0.30;;;15.10;99.90;;;;;;5091718;28;20039;-82
2022/10/05 04:02:00;;;;;;;21.13;1.63;;;15.10;99.90;;;;;;5072518;28;20043;-83
2022/10/05 04:04:49;;;;;;;0.25;0.25;;;15.10;99.90;;;;;;5087417;28;20403;-84
2022/10/05 04:07:35;;;;;;;0.40;0.40;;;15.20;99.90;;;;;;5056033;28;20429;-82
2022/10/05 04:10:06;;;;;;;0.90;0.77;;;15.10;99.90;;;;;;5088861;28;20048;-84
2022/10/05 04:12:49;;;;;;;0.63;0.43;;;15.10;99.90;;;;;;5092081;28;20043;-84
2022/10/05 04:15:15;;;;;;;0.45;0.45;;;15.10;99.90;;;;;;5093176;28;20451;-84
2022/10/05 04:17:48;;;;;;;0.47;0.47;;;15.10;99.90;;;;;;5083570;28;20048;-84
2022/10/05 04:20:39;;;;;;;0.30;0.30;;;15.10;99.90;;;;;;5074452;28;20108;-84
2022/10/05 04:23:25;;;;;;;0.20;0.20;;;15.10;99.90;;;;;;5063222;28;20087;-84
2022/10/05 04:25:55;;;;;;;0.50;0.50;;;15.00;99.90;;;;;;5090831;28;20058;-84
2022/10/05 04:28:57;;;;;;;0.30;0.30;;;15.00;99.90;;;;;;5085491;28;20550;-84
2022/10/05 04:31:53;;;;;;;0.17;0.17;;;15.00;99.90;;;;;;5084073;28;20037;-84
2022/10/05 04:34:37;;;;;;;3.10;1.13;;;15.00;99.90;;;;;;5077041;28;20436;-84
2022/10/05 04:37:10;;;;;;;3.83;1.98;;;15.00;99.90;;;;;;5087685;28;20040;-84
2022/10/05 04:40:14;;;;;;;0.40;0.40;;;15.00;99.90;;;;;;5085785;28;20123;-84
2022/10/05 04:42:48;;;;;;;0.75;0.50;;;14.90;99.90;;;;;;5092139;28;20036;-85
2022/10/05 04:45:52;;;;;;;0.30;0.30;;;15.00;99.90;;;;;;5062086;28;20040;-85
2022/10/05 04:48:23;;;;;;;0.63;0.60;;;15.00;99.90;;;;;;5088535;28;20044;-83
2022/10/05 04:50:56;;;;;;;0.35;0.35;;;14.90;99.90;;;;;;5076073;28;20070;-81
2022/10/05 04:53:35;;;;;;;0.20;0.20;;;14.90;99.90;;;;;;5089690;28;20075;-82
2022/10/05 04:56:16;;;;;;;0.30;0.30;;;14.90;99.90;;;;;;5079107;28;20118;-81
2022/10/05 04:59:39;;;;;;;0.30;0.30;;;14.90;99.90;;;;;;5078663;28;20040;-82
2022/10/05 05:02:38;;;;;;;0.50;0.50;;;14.90;99.90;;;;;;5050546;28;20051;-82
2022/10/05 05:05:21;;;;;;;0.40;0.40;;;14.90;99.90;;;;;;5069753;28;20780;-81
2022/10/05 05:08:11;;;;;;;0.30;0.30;;;14.90;99.90;;;;;;5083290;28;20088;-82
2022/10/05 05:10:42;;;;;;;0.40;0.40;;;14.80;99.90;;;;;;5088786;28;20052;-82
2022/10/05 05:13:08;;;;;;;0.98;0.95;;;14.80;99.90;;;;;;5093046;28;20050;-81
2022/10/05 05:15:39;;;;;;;1.88;1.15;;;14.80;99.90;;;;;;5092603;28;20052;-83
2022/10/05 05:18:43;;;;;;;0.38;0.38;;;14.90;99.90;;;;;;5081836;28;20062;-82
2022/10/05 05:21:31;;;;;;;0.98;0.45;;;14.90;99.90;;;;;;5088854;28;20044;-82
2022/10/05 05:24:19;;;;;;;0.28;0.28;;;14.90;99.90;;;;;;5085075;28;20055;-82
2022/10/05 05:26:59;;;;;;;0.47;0.47;;;14.90;99.90;;;;;;5091630;28;20060;-83
2022/10/05 05:29:43;;;;;;;0.30;0.30;;;14.90;99.90;;;;;;5065331;28;20452;-83
2022/10/05 05:32:35;;;;;;;0.43;0.43;;;14.90;99.90;;;;;;5091868;28;20055;-84
2022/10/05 05:35:20;;;;;;;0.55;0.55;;;14.90;99.90;;;;;;5094939;28;20039;-83
2022/10/05 05:37:59;;;;;;;0.68;0.68;;;14.80;99.90;;;;;;5066666;28;20043;-83
2022/10/05 05:40:34;;;;;;;1.10;1.02;;;14.80;99.90;;;;;;5091376;28;20477;-84
2022/10/05 05:43:03;;;;;;;0.40;0.40;;;14.90;99.90;;;;;;5083302;28;20513;-84
2022/10/05 05:45:35;;;;;;;0.50;0.50;;;14.80;99.90;;;;;;5094146;28;20286;-84
2022/10/05 05:48:20;;;;;;;0.40;0.40;;;14.80;99.90;;;;;;5081312;28;20044;-84
2022/10/05 05:51:08;;;;;;;0.30;0.30;;;14.90;99.90;;;;;;5082397;28;20096;-83
2022/10/05 05:53:38;;;;;;;;;;;14.80;99.90;;;;;;5084935;28;20040;-82
2022/10/05 05:56:16;;;;;;;0.38;0.38;;;14.90;99.90;;;;;;5087171;28;19927;-82
2022/10/05 05:58:58;;;;;;;0.32;0.32;;;14.90;99.90;;;;;;5092648;28;20048;-82
2022/10/05 06:01:27;;;;;;;1.08;0.88;;;14.90;99.90;;;;;;5081567;28;20064;-83
2022/10/05 06:04:01;;;;;;;0.95;0.95;;;14.90;99.90;;;;;;5089121;28;20086;-84
2022/10/05 06:06:31;;;;;;;1.08;1.00;;;14.90;99.90;;;;;;5095120;28;20050;-83
2022/10/05 06:09:23;;;;;;;0.93;0.60;;;14.80;99.90;;;;;;5092252;28;20040;-84
2022/10/05 06:11:54;;;;;;;0.22;0.22;;;14.90;99.90;;;;;;5077880;28;20128;-83
2022/10/05 06:14:28;;;;;;;0.40;0.40;;;14.90;99.90;;;;;;5086578;28;20111;-83
2022/10/05 06:17:16;;;;;;;0.28;0.28;;;14.90;99.90;;;;;;5081577;28;20082;-83
2022/10/05 06:19:44;;;;;;;0.65;0.55;;;14.90;99.90;;;;;;5088855;28;20039;-84
2022/10/05 06:22:23;;;;;;;0.32;0.32;;;14.90;99.90;;;;;;5073965;28;20043;-85
2022/10/05 06:25:24;;;;;;;0.25;0.25;;;14.90;99.90;;;;;;5087145;28;20055;-84
2022/10/05 06:28:12;;;;;;;0.50;0.50;;;14.90;99.90;;;;;;5088536;28;20059;-84
2022/10/05 06:30:46;;;;;;;0.35;0.28;;;14.90;99.90;;;;;;5069672;28;20044;-83
2022/10/05 06:33:27;;;;;;;14.30;3.70;;;14.90;99.90;;;;;;5077559;28;20131;-84
2022/10/05 06:36:33;;;;;;;0.22;0.22;;;15.00;99.90;;;;;;5063828;28;20051;-84
2022/10/05 06:39:23;;;;;;;0.50;0.50;;;15.00;99.90;;;;;;5084944;28;20504;-85
2022/10/05 06:42:19;;;;;;;0.68;0.52;;;15.00;99.90;;;;;;5080852;28;20055;-82
2022/10/05 06:45:03;;;;;;;1.10;0.93;;;15.00;99.90;;;;;;5069250;28;20052;-84
2022/10/05 06:47:34;;;;;;;0.73;0.73;;;15.00;99.90;;;;;;5079843;28;20044;-86
2022/10/05 06:50:31;;;;;;;0.57;0.57;;;15.00;99.90;;;;;;5082838;28;20040;-85
2022/10/05 06:53:20;;;;;;;1.07;0.63;;;15.10;99.90;;;;;;5081570;28;20385;-84
2022/10/05 06:56:01;;;;;;;0.40;0.40;;;15.10;99.90;;;;;;5086435;28;20295;-84
2022/10/05 06:58:51;;;;;;;0.70;0.60;;;15.10;99.90;;;;;;5087977;28;20135;-85
2022/10/05 07:01:29;;;;;;;0.73;0.73;;;15.10;99.90;;;;;;5092679;28;20044;-83
2022/10/05 07:04:32;;;;;;;1.80;1.70;;;15.10;99.90;;;;;;5087708;28;20548;-83
2022/10/05 07:07:09;;;;;;;0.80;0.80;;;15.10;99.90;;;;;;5082948;28;20075;-88
2022/10/05 07:09:50;;;;;;;0.40;0.40;;;15.20;99.90;;;;;;5062525;28;20044;-86
2022/10/05 07:12:37;;;;;;;9.30;0.80;;;15.10;99.90;;;;;;5071132;28;20035;-85
2022/10/05 07:15:32;;;;;;;0.85;0.85;;;15.30;99.90;;;;;;5088350;28;20044;-85
2022/10/05 07:18:16;;;;;;;3.78;1.08;;;15.20;99.90;;;;;;5090859;28;20044;-86
2022/10/05 07:21:18;;;;;;;1.33;0.50;;;15.30;99.90;;;;;;5089534;28;20055;-84
2022/10/05 07:23:54;;;;;;;3.63;0.95;;;15.40;99.90;;;;;;5095590;28;20070;-85
2022/10/05 07:26:31;;;;;;;0.45;0.45;;;15.40;99.90;;;;;;5076193;28;20043;-86
2022/10/05 07:29:06;;;;;;;0.30;0.30;;;15.40;99.90;;;;;;5087335;28;20086;-84
2022/10/05 07:32:21;;;;;;;0.50;0.50;;;15.40;99.90;;;;;;5086270;28;20112;-84
2022/10/05 07:35:00;;;;;;;0.40;0.40;;;15.40;99.90;;;;;;5057670;28;20045;-85
2022/10/05 07:37:56;;;;;;;0.30;0.30;;;15.40;99.90;;;;;;5080543;28;20106;-85
2022/10/05 07:40:48;;;;;;;0.40;0.40;;;15.50;99.90;;;;;;5088283;28;20074;-84
2022/10/05 07:43:17;;;;;;;0.20;0.20;;;15.50;99.90;;;;;;5086923;28;20040;-86
2022/10/05 07:45:53;;;;;;;0.30;0.30;;;15.50;99.90;;;;;;5091277;28;20078;-85
2022/10/05 07:48:46;;;;;;;0.20;0.20;;;15.50;99.90;;;;;;5090509;28;20040;-83
2022/10/05 07:51:39;;;;;;;0.40;0.40;;;15.60;99.90;;;;;;5057794;28;20052;-84
2022/10/05 07:54:15;;;;;;;0.50;0.50;;;15.70;99.90;;;;;;5066233;28;20389;-85
2022/10/05 07:56:43;;;;;;;0.75;0.52;;;15.70;99.90;;;;;;5091735;28;20120;-87
2022/10/05 07:59:29;;;;;;;0.40;0.40;;;15.70;99.90;;;;;;5089052;28;20109;-85
2022/10/05 08:02:12;;;;;;;0.30;0.30;;;15.80;99.90;;;;;;5084581;28;20043;-83
2022/10/05 08:04:50;;;;;;;0.22;0.22;;;15.80;99.90;;;;;;5089693;28;20044;-83
2022/10/05 08:07:17;;;;;;;0.35;0.35;;;15.80;99.90;;;;;;5091289;28;20515;-84
2022/10/05 08:09:53;;;;;;;0.25;0.25;;;15.80;99.90;;;;;;5089211;28;20044;-86
2022/10/05 08:12:35;;;;;;;0.22;0.22;;;15.80;99.90;;;;;;5080383;28;20438;-84
2022/10/05 08:15:21;;;;;;;0.88;0.77;;;15.90;99.90;;;;;;5074137;28;20164;-86
2022/10/05 08:18:12;;;;;;;0.40;0.40;;;15.90;99.90;;;;;;5078590;28;20059;-85
2022/10/05 08:20:51;;;;;;;0.45;0.45;;;15.90;99.90;;;;;;5082879;28;20040;-84
2022/10/05 08:23:40;;;;;;;0.30;0.30;;;15.90;99.90;;;;;;5082508;28;20049;-84
2022/10/05 08:26:26;;;;;;;0.68;0.60;;;15.90;99.90;;;;;;5082211;28;20046;-85
2022/10/05 08:29:20;;;;;;;0.52;0.52;;;16.00;99.90;;;;;;5083983;28;20044;-84
2022/10/05 08:31:51;;;;;;;0.57;0.57;;;16.10;99.90;;;;;;5092616;28;20043;-83
2022/10/05 08:34:39;;;;;;;0.20;0.20;;;16.20;99.90;;;;;;5090508;28;20036;-84
2022/10/05 08:37:17;;;;;;;0.25;0.25;;;16.20;99.90;;;;;;5070508;28;20044;-83
2022/10/05 08:40:15;;;;;;;0.30;0.30;;;16.30;99.90;;;;;;5092324;28;20504;-84
2022/10/05 08:42:49;;;;;;;;;;;16.40;99.90;;;;;;5094271;28;20035;-83
2022/10/05 08:45:49;;;;;;;0.28;0.28;;;16.50;99.90;;;;;;5088325;28;19920;-85
2022/10/05 08:48:15;;;;;;;0.40;0.40;;;16.50;99.90;;;;;;5080249;28;20088;-85
2022/10/05 08:50:47;;;;;;;0.30;0.30;;;16.50;99.90;;;;;;5082432;28;20071;-84
2022/10/05 08:53:24;;;;;;;0.30;0.30;;;16.60;99.90;;;;;;5089708;28;20520;-84
2022/10/05 08:56:27;;;;;;;0.40;0.40;;;16.60;99.90;;;;;;5092437;28;20070;-84
2022/10/05 08:59:14;;;;;;;0.25;0.25;;;16.70;99.90;;;;;;5082274;28;20044;-84
2022/10/05 09:02:09;;;;;;;0.22;0.22;;;16.80;99.90;;;;;;5068561;28;20076;-85
2022/10/05 09:05:13;;;;;;;0.50;0.50;;;16.90;99.90;;;;;;5072547;28;20257;-85
2022/10/05 09:08:29;;;;;;;0.50;0.50;;;16.90;99.90;;;;;;5072216;28;20061;-84
2022/10/05 09:11:12;;;;;;;2.70;0.50;;;16.90;99.90;;;;;;5059350;28;20119;-84
2022/10/05 09:13:56;;;;;;;0.30;0.30;;;16.90;99.90;;;;;;5091908;28;20043;-84
2022/10/05 09:16:36;;;;;;;0.50;0.50;;;17.00;99.90;;;;;;5094800;28;20075;-84
2022/10/05 09:19:14;;;;;;;0.65;0.65;;;17.00;99.90;;;;;;5085153;28;20068;-84
2022/10/05 09:21:47;;;;;;;0.63;0.63;;;17.00;99.90;;;;;;5068697;28;20054;-83
2022/10/05 09:24:25;;;;;;;0.50;0.50;;;17.00;99.90;;;;;;5067710;28;20044;-84
2022/10/05 09:27:14;;;;;;;0.20;0.20;;;16.90;99.90;;;;;;5089887;28;20315;-83
2022/10/05 09:29:58;;;;;;;0.50;0.50;;;16.80;99.90;;;;;;5085615;28;20056;-84
2022/10/05 09:32:56;;;;;;;0.30;0.30;;;16.80;99.90;;;;;;5073062;28;20129;-84
2022/10/05 09:35:31;;;;;;;0.50;0.50;;;16.80;99.90;;;;;;5069684;28;20043;-84
2022/10/05 09:38:27;;;;;;;0.50;0.50;;;16.80;99.90;;;;;;5081232;28;20073;-86
2022/10/05 09:40:58;;;;;;;0.70;0.70;;;16.90;99.90;;;;;;5088552;28;20388;-84
2022/10/05 09:43:43;;;;;;;0.55;0.55;;;17.00;99.90;;;;;;5093103;28;20105;-84
2022/10/05 09:46:28;;;;;;;0.30;0.30;;;17.20;99.90;;;;;;5074145;28;20054;-84
2022/10/05 09:49:10;;;;;;;0.30;0.30;;;17.30;99.90;;;;;;5072725;28;20132;-85
2022/10/05 09:52:05;;;;;;;0.20;0.20;;;17.30;99.90;;;;;;5091324;28;20085;-83
2022/10/05 09:54:43;;;;;;;1.88;1.45;;;17.30;99.90;;;;;;5094913;28;20096;-83
2022/10/05 09:57:27;;;;;;;0.20;0.20;;;17.40;99.90;;;;;;5100614;28;20382;-84
2022/10/05 10:00:25;;;;;;;0.80;0.77;;;17.50;99.90;;;;;;5091287;28;20048;-83
2022/10/05 10:03:41;;;;;;;0.40;0.40;;;17.50;99.90;;;;;;5092518;28;20075;-82
2022/10/05 10:06:22;;;;;;;0.55;0.55;;;17.60;99.90;;;;;;5063091;28;20407;-83
2022/10/05 10:09:18;;;;;;;1.17;1.05;;;17.70;99.90;;;;;;5091984;28;20109;-83
2022/10/05 10:12:13;;;;;;;0.40;0.40;;;17.70;99.90;;;;;;5093640;28;20055;-83
2022/10/05 10:15:12;;;;;;;0.35;0.35;;;17.70;99.90;;;;;;5084451;28;20044;-84
2022/10/05 10:17:53;;;;;;;0.63;0.63;;;17.70;99.90;;;;;;5079514;28;20041;-83
2022/10/05 10:20:29;;;;;;;0.20;0.20;;;17.80;99.90;;;;;;5091277;28;20044;-82
2022/10/05 10:23:04;;;;;;;;;;;17.80;99.90;;;;;;5066211;28;20044;-84
2022/10/05 10:25:51;;;;;;;0.32;0.32;;;17.80;99.90;;;;;;5090828;28;19916;-83
2022/10/05 10:29:02;;;;;;;0.35;0.35;;;17.80;99.90;;;;;;5075426;28;20070;-85
2022/10/05 10:31:42;;;;;;;0.20;0.20;;;17.70;99.90;;;;;;5094271;28;20058;-84
2022/10/05 10:34:17;;;;;;;0.40;0.40;;;17.70;99.90;;;;;;5068732;28;20355;-83
2022/10/05 10:37:05;;;;;;;0.45;0.45;;;17.70;99.90;;;;;;5080919;28;20501;-84
2022/10/05 10:40:22;;;;;;;0.80;0.80;;;17.60;99.90;;;;;;5088484;28;20052;-83
2022/10/05 10:42:58;;;;;;;0.93;0.60;;;17.50;99.90;;;;;;5052381;28;20587;-83
2022/10/05 10:45:44;;;;;;;0.47;0.47;;;17.40;99.90;;;;;;5084153;28;20056;-83
2022/10/05 10:48:29;;;;;;;1.13;1.03;;;17.40;99.90;;;;;;5089270;28;20350;-83
2022/10/05 10:51:15;;;;;;;0.73;0.73;;;17.30;99.90;;;;;;5075590;28;20121;-83
2022/10/05 10:54:18;;;;;;;0.43;0.43;;;17.30;99.90;;;;;;5069122;28;20039;-83
2022/10/05 10:56:55;;;;;;;0.30;0.30;;;17.20;99.90;;;;;;5066977;28;20036;-83
2022/10/05 10:59:46;;;;;;;0.45;0.45;;;17.20;99.90;;;;;;5089478;28;20397;-83
2022/10/05 11:02:42;;;;;;;0.93;0.70;;;17.10;99.90;;;;;;5082786;28;20045;-82
2022/10/05 11:05:54;;;;;;;0.40;0.40;;;17.10;99.90;;;;;;5084873;28;20045;-83
2022/10/05 11:08:19;;;;;;;0.30;0.30;;;17.10;99.90;;;;;;5079789;28;20131;-82
2022/10/05 11:11:11;;;;;;;9.55;0.57;;;17.10;99.90;;;;;;5091182;28;20536;-83
2022/10/05 11:14:21;;;;;;;0.65;0.65;;;17.10;99.90;;;;;;5080778;28;20036;-83
2022/10/05 11:17:05;;;;;;;0.77;0.77;;;17.20;99.90;;;;;;5028425;28;20041;-83
2022/10/05 11:20:19;;;;;;;0.28;0.28;;;17.20;99.90;;;;;;5038818;28;20131;-83
2022/10/05 11:22:53;;;;;;;0.93;0.85;;;17.30;99.90;;;;;;5019991;28;20053;-84
2022/10/05 11:25:41;;;;;;;0.50;0.50;;;17.20;99.90;;;;;;5088178;28;20065;-83
2022/10/05 11:28:26;;;;;;;0.30;0.30;;;17.30;99.90;;;;;;5087594;28;20535;-83
2022/10/05 11:31:16;;;;;;;0.45;0.45;;;17.20;99.90;;;;;;5082400;28;20048;-83
2022/10/05 11:34:28;;;;;;;0.32;0.32;;;17.10;99.90;;;;;;5081577;28;20126;-83
2022/10/05 11:36:58;;;;;;;0.77;0.77;;;17.10;99.90;;;;;;5041213;28;20040;-83
2022/10/05 11:39:43;;;;;;;0.65;0.65;;;17.10;99.90;;;;;;5065871;28;20076;-84
2022/10/05 11:42:30;;;;;;;0.73;0.73;;;17.00;99.90;;;;;;5087358;28;20047;-83
2022/10/05 11:45:01;;;;;;;0.52;0.52;;;17.00;99.90;;;;;;5066245;28;20046;-84
2022/10/05 11:47:37;;;;;;;0.70;0.70;;;16.90;99.90;;;;;;5088408;28;20072;-84
2022/10/05 11:50:22;;;;;;;0.93;0.70;;;16.80;99.90;;;;;;5086070;28;20132;-83
2022/10/05 11:53:22;;;;;;;0.30;0.30;;;16.80;99.90;;;;;;5088221;28;20446;-83
2022/10/05 11:56:22;;;;;;;0.85;0.85;;;16.70;99.90;;;;;;5083539;28;20060;-83
2022/10/05 11:58:53;;;;;;;0.45;0.40;;;16.70;99.90;;;;;;5090827;28;20058;-83
2022/10/05 12:01:33;;;;;;;0.30;0.30;;;16.70;99.90;;;;;;5090100;28;20132;-84
2022/10/05 12:04:25;;;;;;;0.65;0.65;;;16.70;99.90;;;;;;5078124;28;20049;-84
2022/10/05 12:07:18;;;;;;;1.02;1.00;;;16.80;99.90;;;;;;5080689;28;20047;-83
2022/10/05 12:10:16;;;;;;;0.43;0.35;;;16.80;99.90;;;;;;5077384;28;20093;-83
2022/10/05 12:13:07;;;;;;;0.25;0.25;;;16.80;99.90;;;;;;5068801;28;20126;-83
2022/10/05 12:15:39;;;;;;;1.08;0.68;;;16.80;99.90;;;;;;5080563;28;20048;-83
2022/10/05 12:18:17;;;;;;;0.50;0.50;;;16.90;99.90;;;;;;5064372;28;20139;-84
2022/10/05 12:20:53;;;;;;;0.40;0.40;;;16.90;99.90;;;;;;5076708;28;20044;-84
2022/10/05 12:23:33;;;;;;;0.20;0.20;;;16.80;99.90;;;;;;5084037;28;20125;-83
2022/10/05 12:26:19;;;;;;;0.30;0.30;;;16.90;99.90;;;;;;5064110;28;20059;-83
2022/10/05 12:29:06;;;;;;;0.90;0.90;;;16.90;99.90;;;;;;5080555;28;20522;-84
2022/10/05 12:32:15;;;;;;;0.30;0.30;;;17.00;99.90;;;;;;5073877;28;20121;-85
2022/10/05 12:34:57;;;;;;;0.50;0.50;;;17.10;99.90;;;;;;5050211;28;20048;-83
2022/10/05 12:37:45;;;;;;;0.98;0.73;;;17.10;99.90;;;;;;5079715;28;20485;-83
2022/10/05 12:40:50;;;;;;;0.65;0.40;;;17.20;99.90;;;;;;5063024;28;20055;-83
2022/10/05 12:44:04;;;;;;;0.90;0.90;;;17.20;99.90;;;;;;5077573;28;20493;-83
2022/10/05 12:46:58;;;;;;;0.50;0.50;;;17.20;99.90;;;;;;5064245;28;20649;-84
2022/10/05 12:49:32;;;;;;;1.65;0.68;;;17.20;99.90;;;;;;5084965;28;20047;-82
2022/10/05 12:52:00;;;;;;;0.55;0.55;;;17.10;99.90;;;;;;5063513;28;20043;-83
2022/10/05 12:54:35;;;;;;;0.65;0.50;;;17.10;99.90;;;;;;5078816;28;20040;-82
2022/10/05 12:57:15;;;;;;;0.40;0.40;;;17.20;99.90;;;;;;5082365;28;20040;-83
2022/10/05 12:59:56;;;;;;;0.50;0.50;;;17.20;99.90;;;;;;5068399;28;20040;-84
2022/10/05 13:02:49;;;;;;;0.30;0.30;;;17.20;99.90;;;;;;5067500;28;20036;-83
2022/10/05 13:05:18;;;;;;;0.50;0.50;;;17.20;99.90;;;;;;5061380;28;20105;-84
2022/10/05 13:08:11;;;;;;;0.20;0.20;;;17.10;99.90;;;;;;5080604;28;20048;-83
2022/10/05 13:10:43;;;;;;;0.30;0.30;;;17.10;99.90;;;;;;5063221;28;20073;-83
2022/10/05 13:13:40;;;;;;;0.35;0.35;;;17.10;99.90;;;;;;5086589;28;20044;-83
2022/10/05 13:16:24;;;;;;;0.57;0.57;;;17.10;99.90;;;;;;5082159;28;20051;-83
2022/10/05 13:19:21;;;;;;;0.50;0.50;;;17.10;99.90;;;;;;5078058;28;20080;-84
2022/10/05 13:22:03;;;;;;;0.55;0.55;;;17.10;99.90;;;;;;5080056;28;20078;-82
2022/10/05 13:24:36;;;;;;;0.30;0.30;;;17.20;99.90;;;;;;5080208;28;20039;-82
2022/10/05 13:27:34;;;;;;;0.68;0.68;;;17.30;99.90;;;;;;5078075;28;20128;-83
2022/10/05 13:30:07;;;;;;;0.30;0.30;;;17.50;99.90;;;;;;5075735;28;20119;-85
2022/10/05 13:32:46;;;;;;;1.27;0.60;;;17.70;99.90;;;;;;5087663;28;20591;-83
2022/10/05 13:35:27;;;;;;;0.68;0.68;;;17.70;99.90;;;;;;5089425;28;20043;-83
2022/10/05 13:38:18;;;;;;;0.40;0.40;;;17.70;99.90;;;;;;5098557;28;20071;-83
2022/10/05 13:40:49;;;;;;;0.30;0.30;;;17.70;99.90;;;;;;5092143;28;20046;-83
2022/10/05 13:43:24;;;;;;;0.50;0.50;;;17.70;99.90;;;;;;5094995;28;20047;-83
2022/10/05 13:45:56;;;;;;;0.82;0.82;;;17.60;99.90;;;;;;5083421;28;20443;-84
2022/10/05 13:48:47;;;;;;;0.30;0.30;;;17.60;99.90;;;;;;5064034;28;20040;-84
2022/10/05 13:51:22;;;;;;;0.30;0.30;;;17.60;99.90;;;;;;5061834;28;20165;-84
2022/10/05 13:53:58;;;;;;;0.52;0.35;;;17.70;99.90;;;;;;5079973;28;20032;-83
2022/10/05 13:56:40;;;;;;;0.47;0.47;;;17.80;99.90;;;;;;5078954;28;20157;-84
2022/10/05 13:59:17;;;;;;;0.40;0.40;;;17.90;99.90;;;;;;5086553;28;20060;-84
2022/10/05 14:01:56;;;;;;;0.50;0.50;;;17.90;99.90;;;;;;5087255;28;20054;-84
2022/10/05 14:04:44;;;;;;;0.40;0.40;;;18.00;99.90;;;;;;5085164;28;20119;-84
2022/10/05 14:07:48;;;;;;;0.93;0.50;;;18.00;99.90;;;;;;5075239;28;20497;-83
2022/10/05 14:10:33;;;;;;;0.20;0.20;;;18.00;99.90;;;;;;5084161;28;20054;-85
2022/10/05 14:13:00;;;;;;;1.33;0.57;;;17.90;99.90;;;;;;5087265;28;20048;-83
2022/10/05 14:15:33;;;;;;;0.90;0.55;;;17.90;99.90;;;;;;5068765;28;20672;-83
2022/10/05 14:18:19;;;;;;;0.35;0.35;;;17.90;99.90;;;;;;5072595;28;20051;-84
2022/10/05 14:21:14;;;;;;;3.65;1.27;;;17.90;99.90;;;;;;5086613;28;20384;-82
2022/10/05 14:23:40;;;;;;;0.70;0.47;;;17.90;99.90;;;;;;5082123;28;20044;-83
2022/10/05 14:26:24;;;;;;;1.77;1.02;;;17.80;99.90;;;;;;5059382;28;20102;-84
2022/10/05 14:29:36;;;;;;;0.32;0.32;;;17.80;99.90;;;;;;5076847;28;20083;-82